Date,TemperatureHighF,TemperatureAvgF,TemperatureLowF,DewpointHighF,DewpointAvgF,DewpointLowF,HumidityHigh,HumidityAvg,HumidityLow,PressureMaxIn,PressureMinIn,WindSpeedMaxMPH,WindSpeedAvgMPH,GustSpeedMaxMPH,PrecipitationSumIn
2013-2-1,42.1,37.2,28.9,29.4,13.9,0.9,63,40,22,30.20,29.67,34,14,34,0.24
2013-2-2,48.9,38.2,22.1,37.4,15.8,0.8,79,43,22,30.22,29.84,19,6,19,0.00
2013-2-3,49.8,42.0,37.6,39.1,35.0,27.0,95,78,44,29.83,29.69,23,6,23,0.00
2013-2-4,55.9,42.2,29.1,30.6,23.7,15.7,83,51,22,29.93,29.78,8,4,8,0.00
2013-2-5,64.6,48.3,38.8,37.8,32.7,27.7,85,58,26,29.77,29.66,15,4,15,0.00
2013-2-6,66.2,47.8,32.7,41.1,31.0,21.3,100,61,18,30.05,29.75,12,4,12,0.00
2013-2-7,48.6,42.8,37.6,43.9,38.4,33.5,100,85,65,30.10,29.75,14,7,14,0.32
2013-2-8,57.0,46.7,41.2,46.2,37.5,28.2,100,73,50,29.88,29.60,22,12,22,0.57
2013-2-9,55.9,42.6,32.0,32.1,24.4,14.6,87,53,21,30.17,29.86,20,7,20,0.00
2013-2-10,57.9,41.3,28.6,41.9,27.4,-66.1,100,64,22,30.30,29.99,98,3,98,0.05
2013-2-11,63.7,56.6,44.1,60.3,54.5,42.2,100,93,84,29.99,29.70,15,4,15,0.08
2013-2-12,70.7,54.2,48.6,55.1,37.9,22.4,100,60,18,29.88,29.69,16,4,16,0.01
2013-2-13,49.6,47.6,44.2,47.9,44.0,35.9,100,88,65,29.74,29.42,23,6,23,0.09
2013-2-14,55.4,44.3,33.3,42.4,33.8,28.1,99,70,37,29.86,29.62,12,4,12,0.00
2013-2-15,69.6,47.5,30.7,43.9,34.4,25.7,100,68,22,29.88,29.72,17,3,17,0.00
2013-2-16,49.3,41.7,34.0,37.6,34.2,22.7,100,76,62,29.78,29.64,21,9,21,0.40
2013-2-17,40.5,32.6,26.1,23.9,14.1,3.4,70,48,27,30.07,29.73,39,14,39,0.05
2013-2-18,56.7,38.5,21.7,28.7,20.2,12.4,92,53,21,30.20,30.04,14,4,14,0.00
2013-2-19,51.8,43.2,34.0,51.6,38.8,24.9,100,85,61,30.04,29.65,19,4,19,0.18
2013-2-20,55.9,43.2,30.6,40.2,22.9,11.4,99,49,21,29.92,29.75,27,7,27,0.01
2013-2-21,64.8,45.4,27.9,32.8,21.3,14.7,81,42,18,30.03,29.90,11,3,11,0.00
2013-2-22,45.3,37.7,34.2,36.5,32.0,21.2,97,82,38,30.14,29.93,11,4,11,0.44
2013-2-23,44.4,40.8,36.9,44.1,40.5,36.1,100,99,94,29.93,29.62,17,4,17,0.67
2013-2-24,63.1,50.1,39.7,46.4,39.5,23.1,100,72,22,29.82,29.60,22,5,22,0.10
2013-2-25,45.3,39.3,35.2,34.9,25.3,19.2,89,58,41,30.02,29.82,15,5,15,0.00
2013-2-26,58.1,45.8,36.1,57.8,42.3,25.1,100,88,57,29.92,29.32,23,6,23,0.78
2013-2-27,63.9,54.4,44.4,45.2,39.3,33.8,97,62,37,29.58,29.40,20,7,20,0.00
2013-2-28,62.8,62.8,62.8,36.8,36.8,36.8,38,38,38,29.51,29.51,4,4,10,0.00